sensor_id;sensor_type;location;lat;lon;timestamp;pressure;altitude;pressure_sealevel;temperature;humidity
28167;BME280;15455;53.376;-6.262;2023-04-26T00:00:22;101489.03;;;6.20;100.00
28167;BME280;15455;53.376;-6.262;2023-04-26T00:03:08;101489.88;;;6.19;100.00
28167;BME280;15455;53.376;-6.262;2023-04-26T00:05:55;101494.16;;;6.17;100.00
28167;BME280;15455;53.376;-6.262;2023-04-26T00:08:40;101491.44;;;6.14;100.00
28167;BME280;15455;53.376;-6.262;2023-04-26T00:11:27;101491.38;;;6.11;100.00
28167;BME280;15455;53.376;-6.262;2023-04-26T00:14:12;101493.88;;;6.07;100.00
28167;BME280;15455;53.376;-6.262;2023-04-26T00:16:58;101492.94;;;6.04;100.00
28167;BME280;15455;53.376;-6.262;2023-04-26T00:19:43;101487.59;;;5.99;100.00
28167;BME280;15455;53.376;-6.262;2023-04-26T00:22:29;101490.91;;;5.95;100.00
28167;BME280;15455;53.376;-6.262;2023-04-26T00:25:15;101489.16;;;5.94;100.00
28167;BME280;15455;53.376;-6.262;2023-04-26T00:28:02;101491.63;;;5.89;100.00
28167;BME280;15455;53.376;-6.262;2023-04-26T00:30:48;101482.00;;;5.85;100.00
28167;BME280;15455;53.376;-6.262;2023-04-26T00:33:35;101485.41;;;5.84;100.00
28167;BME280;15455;53.376;-6.262;2023-04-26T00:36:20;101484.50;;;5.82;100.00
28167;BME280;15455;53.376;-6.262;2023-04-26T00:39:06;101482.66;;;5.78;100.00
28167;BME280;15455;53.376;-6.262;2023-04-26T00:41:53;101484.25;;;5.74;100.00
28167;BME280;15455;53.376;-6.262;2023-04-26T00:44:38;101484.25;;;5.74;100.00
28167;BME280;15455;53.376;-6.262;2023-04-26T00:47:24;101477.34;;;5.73;100.00
28167;BME280;15455;53.376;-6.262;2023-04-26T00:50:10;101474.81;;;5.75;100.00
28167;BME280;15455;53.376;-6.262;2023-04-26T00:53:00;101474.06;;;5.79;100.00
28167;BME280;15455;53.376;-6.262;2023-04-26T00:55:47;101473.28;;;5.83;100.00
28167;BME280;15455;53.376;-6.262;2023-04-26T00:58:33;101469.97;;;5.87;100.00
28167;BME280;15455;53.376;-6.262;2023-04-26T01:01:19;101465.72;;;5.89;100.00
28167;BME280;15455;53.376;-6.262;2023-04-26T01:04:05;101452.84;;;5.93;100.00
28167;BME280;15455;53.376;-6.262;2023-04-26T01:06:52;101451.16;;;5.95;100.00
28167;BME280;15455;53.376;-6.262;2023-04-26T01:09:39;101447.84;;;5.99;100.00
28167;BME280;15455;53.376;-6.262;2023-04-26T01:12:25;101441.94;;;6.03;100.00
28167;BME280;15455;53.376;-6.262;2023-04-26T01:15:11;101437.66;;;6.05;100.00
28167;BME280;15455;53.376;-6.262;2023-04-26T01:17:56;101435.06;;;6.05;100.00
28167;BME280;15455;53.376;-6.262;2023-04-26T01:20:42;101429.00;;;6.04;100.00
28167;BME280;15455;53.376;-6.262;2023-04-26T01:23:27;101433.31;;;6.04;100.00
28167;BME280;15455;53.376;-6.262;2023-04-26T01:26:13;101431.53;;;6.01;100.00
28167;BME280;15455;53.376;-6.262;2023-04-26T01:28:58;101432.34;;;6.00;100.00
28167;BME280;15455;53.376;-6.262;2023-04-26T01:31:44;101425.44;;;6.01;100.00
28167;BME280;15455;53.376;-6.262;2023-04-26T01:34:30;101421.19;;;6.03;100.00
28167;BME280;15455;53.376;-6.262;2023-04-26T01:37:18;101423.75;;;6.01;100.00
28167;BME280;15455;53.376;-6.262;2023-04-26T01:40:04;101422.03;;;6.02;100.00
28167;BME280;15455;53.376;-6.262;2023-04-26T01:42:54;101422.03;;;6.02;100.00
28167;BME280;15455;53.376;-6.262;2023-04-26T01:45:39;101419.44;;;6.02;100.00
28167;BME280;15455;53.376;-6.262;2023-04-26T01:48:44;101415.06;;;6.01;100.00
28167;BME280;15455;53.376;-6.262;2023-04-26T01:51:29;101409.00;;;5.99;100.00
28167;BME280;15455;53.376;-6.262;2023-04-26T01:54:16;101410.75;;;6.00;100.00
28167;BME280;15455;53.376;-6.262;2023-04-26T01:57:01;101412.41;;;5.98;100.00
28167;BME280;15455;53.376;-6.262;2023-04-26T01:59:47;101410.59;;;5.95;100.00
28167;BME280;15455;53.376;-6.262;2023-04-26T02:02:33;101401.03;;;5.93;100.00
28167;BME280;15455;53.376;-6.262;2023-04-26T02:05:20;101410.50;;;5.92;100.00
28167;BME280;15455;53.376;-6.262;2023-04-26T02:08:06;101406.97;;;5.88;100.00
28167;BME280;15455;53.376;-6.262;2023-04-26T02:10:52;101404.34;;;5.87;100.00
28167;BME280;15455;53.376;-6.262;2023-04-26T02:13:38;101399.06;;;5.84;100.00
28167;BME280;15455;53.376;-6.262;2023-04-26T02:16:23;101404.22;;;5.82;100.00
28167;BME280;15455;53.376;-6.262;2023-04-26T02:19:09;101403.22;;;5.79;100.00
28167;BME280;15455;53.376;-6.262;2023-04-26T02:21:58;101398.88;;;5.78;100.00
28167;BME280;15455;53.376;-6.262;2023-04-26T02:24:44;101404.06;;;5.78;100.00
28167;BME280;15455;53.376;-6.262;2023-04-26T02:27:30;101393.69;;;5.78;100.00
28167;BME280;15455;53.376;-6.262;2023-04-26T02:30:18;101394.59;;;5.78;100.00
28167;BME280;15455;53.376;-6.262;2023-04-26T02:33:03;101385.03;;;5.76;100.00
28167;BME280;15455;53.376;-6.262;2023-04-26T02:35:49;101394.50;;;5.75;100.00
28167;BME280;15455;53.376;-6.262;2023-04-26T02:38:35;101389.25;;;5.72;100.00
28167;BME280;15455;53.376;-6.262;2023-04-26T02:41:22;101388.31;;;5.70;100.00
28167;BME280;15455;53.376;-6.262;2023-04-26T02:44:09;101383.06;;;5.67;100.00
28167;BME280;15455;53.376;-6.262;2023-04-26T02:46:55;101383.84;;;5.64;100.00
28167;BME280;15455;53.376;-6.262;2023-04-26T02:49:41;101387.22;;;5.62;100.00
28167;BME280;15455;53.376;-6.262;2023-04-26T02:52:27;101374.22;;;5.60;100.00
28167;BME280;15455;53.376;-6.262;2023-04-26T02:55:12;101377.69;;;5.59;100.00
28167;BME280;15455;53.376;-6.262;2023-04-26T02:57:58;101373.34;;;5.60;100.00
28167;BME280;15455;53.376;-6.262;2023-04-26T03:00:47;101365.59;;;5.60;100.00
28167;BME280;15455;53.376;-6.262;2023-04-26T03:03:33;101363.00;;;5.60;100.00
28167;BME280;15455;53.376;-6.262;2023-04-26T03:06:19;101362.13;;;5.59;100.00
28167;BME280;15455;53.376;-6.262;2023-04-26T03:09:04;101365.59;;;5.60;100.00
28167;BME280;15455;53.376;-6.262;2023-04-26T03:11:51;101367.31;;;5.59;100.00
28167;BME280;15455;53.376;-6.262;2023-04-26T03:14:36;101369.91;;;5.59;100.00
28167;BME280;15455;53.376;-6.262;2023-04-26T03:17:22;101372.53;;;5.61;100.00
28167;BME280;15455;53.376;-6.262;2023-04-26T03:20:09;101371.63;;;5.60;100.00
28167;BME280;15455;53.376;-6.262;2023-04-26T03:22:55;101367.34;;;5.61;100.00
28167;BME280;15455;53.376;-6.262;2023-04-26T03:25:40;101366.47;;;5.60;100.00
28167;BME280;15455;53.376;-6.262;2023-04-26T03:28:26;101366.47;;;5.60;100.00
28167;BME280;15455;53.376;-6.262;2023-04-26T03:31:11;101365.59;;;5.60;100.00
28167;BME280;15455;53.376;-6.262;2023-04-26T03:33:57;101356.84;;;5.56;100.00
28167;BME280;15455;53.376;-6.262;2023-04-26T03:36:42;101355.97;;;5.55;100.00
28167;BME280;15455;53.376;-6.262;2023-04-26T03:39:28;101356.81;;;5.54;100.00
28167;BME280;15455;53.376;-6.262;2023-04-26T03:42:13;101361.06;;;5.52;100.00
28167;BME280;15455;53.376;-6.262;2023-04-26T03:44:59;101361.91;;;5.51;100.00
28167;BME280;15455;53.376;-6.262;2023-04-26T03:47:44;101359.31;;;5.51;100.00
28167;BME280;15455;53.376;-6.262;2023-04-26T03:50:31;101354.13;;;5.51;100.00
28167;BME280;15455;53.376;-6.262;2023-04-26T03:53:18;101352.31;;;5.49;100.00
28167;BME280;15455;53.376;-6.262;2023-04-26T03:56:03;101339.25;;;5.44;100.00
28167;BME280;15455;53.376;-6.262;2023-04-26T03:58:50;101336.56;;;5.39;100.00
28167;BME280;15455;53.376;-6.262;2023-04-26T04:01:36;101339.06;;;5.36;100.00
28167;BME280;15455;53.376;-6.262;2023-04-26T04:04:22;101336.44;;;5.35;100.00
28167;BME280;15455;53.376;-6.262;2023-04-26T04:07:08;101330.34;;;5.34;100.00
28167;BME280;15455;53.376;-6.262;2023-04-26T04:09:53;101332.06;;;5.34;100.00
28167;BME280;15455;53.376;-6.262;2023-04-26T04:12:39;101332.91;;;5.33;100.00
28167;BME280;15455;53.376;-6.262;2023-04-26T04:15:24;101328.59;;;5.32;100.00
28167;BME280;15455;53.376;-6.262;2023-04-26T04:18:12;101325.94;;;5.30;100.00
28167;BME280;15455;53.376;-6.262;2023-04-26T04:20:58;101325.91;;;5.29;100.00
28167;BME280;15455;53.376;-6.262;2023-04-26T04:23:44;101321.59;;;5.29;100.00
28167;BME280;15455;53.376;-6.262;2023-04-26T04:26:31;101319.00;;;5.29;100.00
28167;BME280;15455;53.376;-6.262;2023-04-26T04:29:17;101321.53;;;5.26;100.00
28167;BME280;15455;53.376;-6.262;2023-04-26T04:32:02;101324.88;;;5.24;100.00
28167;BME280;15455;53.376;-6.262;2023-04-26T04:34:50;101322.22;;;5.20;100.00
28167;BME280;15455;53.376;-6.262;2023-04-26T04:37:38;101318.59;;;5.15;100.00
28167;BME280;15455;53.376;-6.262;2023-04-26T04:40:24;101324.53;;;5.11;100.00
28167;BME280;15455;53.376;-6.262;2023-04-26T04:43:11;101327.91;;;5.09;100.00
28167;BME280;15455;53.376;-6.262;2023-04-26T04:45:56;101324.34;;;5.05;100.00
28167;BME280;15455;53.376;-6.262;2023-04-26T04:48:42;101331.16;;;5.01;100.00
28167;BME280;15455;53.376;-6.262;2023-04-26T04:51:28;101334.59;;;5.02;100.00
28167;BME280;15455;53.376;-6.262;2023-04-26T04:54:15;101331.16;;;5.01;100.00
28167;BME280;15455;53.376;-6.262;2023-04-26T04:57:04;101332.75;;;4.98;100.00
28167;BME280;15455;53.376;-6.262;2023-04-26T04:59:49;101327.53;;;4.96;100.00
28167;BME280;15455;53.376;-6.262;2023-04-26T05:02:36;101325.78;;;4.95;100.00
28167;BME280;15455;53.376;-6.262;2023-04-26T05:05:22;101328.31;;;4.94;100.00
28167;BME280;15455;53.376;-6.262;2023-04-26T05:08:08;101324.81;;;4.92;100.00
28167;BME280;15455;53.376;-6.262;2023-04-26T05:10:54;101329.13;;;4.91;100.00
28167;BME280;15455;53.376;-6.262;2023-04-26T05:13:40;101326.59;;;4.93;100.00
28167;BME280;15455;53.376;-6.262;2023-04-26T05:16:26;101328.41;;;4.97;100.00
28167;BME280;15455;53.376;-6.262;2023-04-26T05:19:11;101332.06;;;5.03;100.00
28167;BME280;15455;53.376;-6.262;2023-04-26T05:21:58;101333.09;;;5.09;100.00
28167;BME280;15455;53.376;-6.262;2023-04-26T05:24:45;101333.22;;;5.13;100.00
28167;BME280;15455;53.376;-6.262;2023-04-26T05:27:32;101341.13;;;5.18;100.00
28167;BME280;15455;53.376;-6.262;2023-04-26T05:30:40;101342.34;;;5.31;100.00
28167;BME280;15455;53.376;-6.262;2023-04-26T05:33:58;101347.78;;;5.40;100.00
28167;BME280;15455;53.376;-6.262;2023-04-26T05:36:47;101344.56;;;5.49;100.00
28167;BME280;15455;53.376;-6.262;2023-04-26T05:39:32;101349.97;;;5.56;100.00
28167;BME280;15455;53.376;-6.262;2023-04-26T05:42:18;101356.25;;;5.65;100.00
28167;BME280;15455;53.376;-6.262;2023-04-26T05:45:04;101348.66;;;5.71;100.00
28167;BME280;15455;53.376;-6.262;2023-04-26T05:47:51;101358.34;;;5.78;100.00
28167;BME280;15455;53.376;-6.262;2023-04-26T05:50:37;101352.44;;;5.84;100.00
28167;BME280;15455;53.376;-6.262;2023-04-26T05:53:24;101357.75;;;5.88;100.00
28167;BME280;15455;53.376;-6.262;2023-04-26T05:56:10;101350.03;;;5.91;100.00
28167;BME280;15455;53.376;-6.262;2023-04-26T05:58:58;101347.56;;;5.96;100.00
28167;BME280;15455;53.376;-6.262;2023-04-26T06:01:43;101347.72;;;6.01;100.00
28167;BME280;15455;53.376;-6.262;2023-04-26T06:04:29;101347.84;;;6.05;100.00
28167;BME280;15455;53.376;-6.262;2023-04-26T06:07:21;101341.09;;;6.12;100.00
28167;BME280;15455;53.376;-6.262;2023-04-26T06:10:06;101346.50;;;6.20;100.00
28167;BME280;15455;53.376;-6.262;2023-04-26T06:12:52;101347.56;;;6.30;100.00
28167;BME280;15455;53.376;-6.262;2023-04-26T06:15:39;101341.66;;;6.35;100.00
28167;BME280;15455;53.376;-6.262;2023-04-26T06:18:25;101340.03;;;6.39;100.00
28167;BME280;15455;53.376;-6.262;2023-04-26T06:21:10;101340.88;;;6.38;100.00
28167;BME280;15455;53.376;-6.262;2023-04-26T06:23:56;101349.44;;;6.35;100.00
28167;BME280;15455;53.376;-6.262;2023-04-26T06:26:44;101352.72;;;6.28;100.00
28167;BME280;15455;53.376;-6.262;2023-04-26T06:29:33;101349.94;;;6.20;100.00
28167;BME280;15455;53.376;-6.262;2023-04-26T06:32:19;101355.81;;;6.13;100.00
28167;BME280;15455;53.376;-6.262;2023-04-26T06:35:06;101362.50;;;6.05;100.00
28167;BME280;15455;53.376;-6.262;2023-04-26T06:37:52;101363.34;;;6.02;100.00
28167;BME280;15455;53.376;-6.262;2023-04-26T06:40:37;101359.81;;;6.00;100.00
28167;BME280;15455;53.376;-6.262;2023-04-26T06:43:23;101363.13;;;5.96;100.00
28167;BME280;15455;53.376;-6.262;2023-04-26T06:46:14;101364.72;;;5.91;100.00
28167;BME280;15455;53.376;-6.262;2023-04-26T06:49:00;101367.25;;;5.88;100.00
28167;BME280;15455;53.376;-6.262;2023-04-26T06:51:46;101363.75;;;5.87;100.00
28167;BME280;15455;53.376;-6.262;2023-04-26T06:54:31;101368.09;;;5.88;100.00
28167;BME280;15455;53.376;-6.262;2023-04-26T06:57:20;101375.94;;;5.91;100.00
28167;BME280;15455;53.376;-6.262;2023-04-26T07:00:06;101364.72;;;6.23;100.00
28167;BME280;15455;53.376;-6.262;2023-04-26T07:02:52;101371.78;;;6.65;100.00
28167;BME280;15455;53.376;-6.262;2023-04-26T07:05:38;101370.81;;;6.98;100.00
28167;BME280;15455;53.376;-6.262;2023-04-26T07:08:24;101366.28;;;7.30;100.00
28167;BME280;15455;53.376;-6.262;2023-04-26T07:11:11;101371.38;;;7.67;100.00
28167;BME280;15455;53.376;-6.262;2023-04-26T07:13:56;101360.84;;;8.07;100.00
28167;BME280;15455;53.376;-6.262;2023-04-26T07:16:42;101348.31;;;8.36;100.00
28167;BME280;15455;53.376;-6.262;2023-04-26T07:19:28;101349.44;;;8.50;100.00
28167;BME280;15455;53.376;-6.262;2023-04-26T07:22:14;101346.03;;;8.53;100.00
28167;BME280;15455;53.376;-6.262;2023-04-26T07:24:59;101340.81;;;8.53;100.00
28167;BME280;15455;53.376;-6.262;2023-04-26T07:27:45;101330.44;;;8.55;100.00
28167;BME280;15455;53.376;-6.262;2023-04-26T07:30:30;101334.03;;;8.61;100.00
28167;BME280;15455;53.376;-6.262;2023-04-26T07:33:16;101327.25;;;8.73;100.00
28167;BME280;15455;53.376;-6.262;2023-04-26T07:36:01;101320.56;;;8.90;100.00
28167;BME280;15455;53.376;-6.262;2023-04-26T07:38:47;101322.63;;;9.16;100.00
28167;BME280;15455;53.376;-6.262;2023-04-26T07:41:33;101325.63;;;9.50;100.00
28167;BME280;15455;53.376;-6.262;2023-04-26T07:44:18;101324.19;;;9.77;100.00
28167;BME280;15455;53.376;-6.262;2023-04-26T07:47:04;101314.84;;;10.00;100.00
28167;BME280;15455;53.376;-6.262;2023-04-26T07:49:52;101320.19;;;10.16;100.00
28167;BME280;15455;53.376;-6.262;2023-04-26T07:52:38;101323.72;;;10.22;100.00
28167;BME280;15455;53.376;-6.262;2023-04-26T07:55:24;101318.56;;;10.30;100.00
28167;BME280;15455;53.376;-6.262;2023-04-26T07:58:10;101322.13;;;10.37;100.00
28167;BME280;15455;53.376;-6.262;2023-04-26T08:00:59;101312.59;;;10.40;100.00
28167;BME280;15455;53.376;-6.262;2023-04-26T08:03:44;101303.97;;;10.51;100.00
28167;BME280;15455;53.376;-6.262;2023-04-26T08:06:30;101308.38;;;10.61;100.00
28167;BME280;15455;53.376;-6.262;2023-04-26T08:09:16;101315.41;;;10.71;100.00
28167;BME280;15455;53.376;-6.262;2023-04-26T08:12:03;101311.97;;;10.83;100.00
28167;BME280;15455;53.376;-6.262;2023-04-26T08:14:48;101318.13;;;10.90;100.00
28167;BME280;15455;53.376;-6.262;2023-04-26T08:17:34;101314.69;;;11.00;100.00
28167;BME280;15455;53.376;-6.262;2023-04-26T08:20:20;101320.84;;;11.10;100.00
28167;BME280;15455;53.376;-6.262;2023-04-26T08:23:05;101325.22;;;11.19;100.00
28167;BME280;15455;53.376;-6.262;2023-04-26T08:25:51;101328.69;;;11.16;100.00
28167;BME280;15455;53.376;-6.262;2023-04-26T08:28:36;101325.22;;;11.17;100.00
28167;BME280;15455;53.376;-6.262;2023-04-26T08:31:22;101330.47;;;11.22;100.00
28167;BME280;15455;53.376;-6.262;2023-04-26T08:34:07;101327.00;;;11.29;100.00
28167;BME280;15455;53.376;-6.262;2023-04-26T08:36:55;101327.06;;;11.37;100.00
28167;BME280;15455;53.376;-6.262;2023-04-26T08:39:41;101324.44;;;11.43;100.00
28167;BME280;15455;53.376;-6.262;2023-04-26T08:42:27;101324.47;;;11.44;100.00
28167;BME280;15455;53.376;-6.262;2023-04-26T08:45:13;101329.69;;;11.55;100.00
28167;BME280;15455;53.376;-6.262;2023-04-26T08:48:10;101323.63;;;11.62;100.00
28167;BME280;15455;53.376;-6.262;2023-04-26T08:51:00;101322.75;;;11.68;100.00
28167;BME280;15455;53.376;-6.262;2023-04-26T08:53:47;101326.28;;;11.73;100.00
28167;BME280;15455;53.376;-6.262;2023-04-26T08:56:34;101320.19;;;11.77;100.00
28167;BME280;15455;53.376;-6.262;2023-04-26T08:59:20;101316.69;;;11.74;100.00
28167;BME280;15455;53.376;-6.262;2023-04-26T09:02:09;101321.91;;;11.80;100.00
28167;BME280;15455;53.376;-6.262;2023-04-26T09:04:55;101323.66;;;11.86;100.00
28167;BME280;15455;53.376;-6.262;2023-04-26T09:07:43;101320.19;;;11.88;100.00
28167;BME280;15455;53.376;-6.262;2023-04-26T09:10:29;101315.88;;;12.03;100.00
28167;BME280;15455;53.376;-6.262;2023-04-26T09:13:16;101314.13;;;12.19;100.00
28167;BME280;15455;53.376;-6.262;2023-04-26T09:16:02;101317.63;;;12.27;100.00
28167;BME280;15455;53.376;-6.262;2023-04-26T09:18:49;101313.25;;;12.26;100.00
28167;BME280;15455;53.376;-6.262;2023-04-26T09:21:42;101308.91;;;12.25;100.00
28167;BME280;15455;53.376;-6.262;2023-04-26T09:24:48;101312.38;;;12.39;100.00
28167;BME280;15455;53.376;-6.262;2023-04-26T09:30:21;101314.13;;;12.49;100.00
28167;BME280;15455;53.376;-6.262;2023-04-26T09:33:06;101310.59;;;12.54;100.00
28167;BME280;15455;53.376;-6.262;2023-04-26T09:35:53;101305.34;;;12.67;100.00
28167;BME280;15455;53.376;-6.262;2023-04-26T09:38:42;101314.97;;;12.59;100.00
28167;BME280;15455;53.376;-6.262;2023-04-26T09:41:47;101309.78;;;12.41;100.00
28167;BME280;15455;53.376;-6.262;2023-04-26T09:44:33;101315.91;;;12.35;100.00
28167;BME280;15455;53.376;-6.262;2023-04-26T09:47:20;101318.50;;;12.38;100.00
28167;BME280;15455;53.376;-6.262;2023-04-26T09:50:06;101322.84;;;12.31;100.00
28167;BME280;15455;53.376;-6.262;2023-04-26T09:52:52;101323.72;;;12.27;100.00
28167;BME280;15455;53.376;-6.262;2023-04-26T09:55:37;101314.16;;;12.09;100.00
28167;BME280;15455;53.376;-6.262;2023-04-26T09:58:23;101319.34;;;11.98;100.00
28167;BME280;15455;53.376;-6.262;2023-04-26T10:01:10;101326.28;;;11.86;100.00
28167;BME280;15455;53.376;-6.262;2023-04-26T10:04:00;101323.66;;;11.78;100.00
28167;BME280;15455;53.376;-6.262;2023-04-26T10:06:46;101323.66;;;11.76;100.00
28167;BME280;15455;53.376;-6.262;2023-04-26T10:09:32;101320.19;;;11.77;100.00
28167;BME280;15455;53.376;-6.262;2023-04-26T10:12:18;101317.56;;;11.80;100.00
28167;BME280;15455;53.376;-6.262;2023-04-26T10:15:05;101321.94;;;11.89;100.00
28167;BME280;15455;53.376;-6.262;2023-04-26T10:17:53;101317.63;;;11.99;100.00
28167;BME280;15455;53.376;-6.262;2023-04-26T10:20:40;101314.13;;;12.14;100.00
28167;BME280;15455;53.376;-6.262;2023-04-26T10:23:27;101313.28;;;12.33;100.00
28167;BME280;15455;53.376;-6.262;2023-04-26T10:26:47;101320.25;;;12.44;100.00
28167;BME280;15455;53.376;-6.262;2023-04-26T10:35:59;101315.66;;;13.25;100.00
28167;BME280;15455;53.376;-6.262;2023-04-26T10:39:17;101314.75;;;13.29;100.00
28167;BME280;15455;53.376;-6.262;2023-04-26T10:45:27;101313.97;;;13.07;100.00
28167;BME280;15455;53.376;-6.262;2023-04-26T10:48:18;101314.91;;;12.84;100.00
28167;BME280;15455;53.376;-6.262;2023-04-26T10:51:06;101314.09;;;12.63;100.00
28167;BME280;15455;53.376;-6.262;2023-04-26T10:59:24;101305.44;;;12.18;100.00
28167;BME280;15455;53.376;-6.262;2023-04-26T11:02:13;101302.81;;;11.93;100.00
28167;BME280;15455;53.376;-6.262;2023-04-26T11:04:58;101307.09;;;11.80;100.00
28167;BME280;15455;53.376;-6.262;2023-04-26T11:07:43;101300.13;;;11.79;100.00
28167;BME280;15455;53.376;-6.262;2023-04-26T11:10:29;101311.47;;;11.89;100.00
28167;BME280;15455;53.376;-6.262;2023-04-26T11:13:15;101299.31;;;11.99;100.00
28167;BME280;15455;53.376;-6.262;2023-04-26T11:16:03;101301.06;;;12.05;100.00
28167;BME280;15455;53.376;-6.262;2023-04-26T11:18:53;101301.06;;;12.06;100.00
28167;BME280;15455;53.376;-6.262;2023-04-26T11:21:39;101305.41;;;12.06;100.00
28167;BME280;15455;53.376;-6.262;2023-04-26T11:24:34;101300.19;;;12.01;100.00
28167;BME280;15455;53.376;-6.262;2023-04-26T11:27:26;101293.22;;;12.08;100.00
28167;BME280;15455;53.376;-6.262;2023-04-26T11:30:12;101297.56;;;12.07;100.00
28167;BME280;15455;53.376;-6.262;2023-04-26T11:32:58;101300.19;;;12.18;100.00
28167;BME280;15455;53.376;-6.262;2023-04-26T11:35:45;101308.91;;;12.26;100.00
28167;BME280;15455;53.376;-6.262;2023-04-26T11:38:32;101305.44;;;12.33;100.00
28167;BME280;15455;53.376;-6.262;2023-04-26T11:41:17;101315.00;;;12.50;100.00
28167;BME280;15455;53.376;-6.262;2023-04-26T11:44:03;101312.38;;;12.51;100.00
28167;BME280;15455;53.376;-6.262;2023-04-26T11:46:49;101315.00;;;12.51;100.00
28167;BME280;15455;53.376;-6.262;2023-04-26T11:49:35;101325.47;;;12.50;100.00
28167;BME280;15455;53.376;-6.262;2023-04-26T11:52:22;101321.97;;;12.45;100.00
28167;BME280;15455;53.376;-6.262;2023-04-26T11:55:08;101325.44;;;12.58;100.00
28167;BME280;15455;53.376;-6.262;2023-04-26T11:57:54;101324.59;;;12.40;100.00
28167;BME280;15455;53.376;-6.262;2023-04-26T12:01:00;101328.97;;;12.27;100.00
28167;BME280;15455;53.376;-6.262;2023-04-26T12:03:55;101328.97;;;12.37;100.00
28167;BME280;15455;53.376;-6.262;2023-04-26T12:06:43;101330.69;;;12.65;100.00
28167;BME280;15455;53.376;-6.262;2023-04-26T12:09:29;101334.13;;;12.84;100.00
28167;BME280;15455;53.376;-6.262;2023-04-26T12:12:15;101330.50;;;13.26;100.00
28167;BME280;15455;53.376;-6.262;2023-04-26T12:15:08;101339.91;;;13.71;100.00
28167;BME280;15455;53.376;-6.262;2023-04-26T12:18:13;101337.91;;;14.11;100.00
28167;BME280;15455;53.376;-6.262;2023-04-26T12:21:00;101325.34;;;14.48;100.00
28167;BME280;15455;53.376;-6.262;2023-04-26T12:23:45;101330.25;;;14.87;100.00
28167;BME280;15455;53.376;-6.262;2023-04-26T12:26:43;101338.81;;;15.04;100.00
28167;BME280;15455;53.376;-6.262;2023-04-26T12:29:30;101332.72;;;14.98;100.00
28167;BME280;15455;53.376;-6.262;2023-04-26T12:32:16;101323.31;;;14.78;100.00
28167;BME280;15455;53.376;-6.262;2023-04-26T12:35:03;101334.91;;;14.55;100.00
28167;BME280;15455;53.376;-6.262;2023-04-26T12:37:49;101339.59;;;14.19;100.00
28167;BME280;15455;53.376;-6.262;2023-04-26T12:40:37;101346.78;;;13.93;100.00
28167;BME280;15455;53.376;-6.262;2023-04-26T12:43:23;101342.53;;;13.71;100.00
28167;BME280;15455;53.376;-6.262;2023-04-26T12:46:10;101334.69;;;13.70;100.00
28167;BME280;15455;53.376;-6.262;2023-04-26T12:48:56;101338.16;;;13.75;100.00
28167;BME280;15455;53.376;-6.262;2023-04-26T12:51:41;101340.69;;;13.87;100.00
28167;BME280;15455;53.376;-6.262;2023-04-26T12:54:26;101332.63;;;14.18;100.00
28167;BME280;15455;53.376;-6.262;2023-04-26T12:57:12;101328.00;;;14.45;100.00
28167;BME280;15455;53.376;-6.262;2023-04-26T12:59:58;101337.63;;;14.45;100.00
28167;BME280;15455;53.376;-6.262;2023-04-26T13:02:44;101331.38;;;14.58;100.00
28167;BME280;15455;53.376;-6.262;2023-04-26T13:05:32;101323.59;;;14.49;100.00
28167;BME280;15455;53.376;-6.262;2023-04-26T13:08:17;101335.25;;;14.18;100.00
28167;BME280;15455;53.376;-6.262;2023-04-26T13:11:03;101331.75;;;14.16;100.00
28167;BME280;15455;53.376;-6.262;2023-04-26T13:13:49;101335.19;;;14.23;100.00
28167;BME280;15455;53.376;-6.262;2023-04-26T13:16:36;101338.78;;;14.14;100.00
28167;BME280;15455;53.376;-6.262;2023-04-26T13:19:26;101331.84;;;14.04;100.00
28167;BME280;15455;53.376;-6.262;2023-04-26T13:22:12;101329.25;;;13.98;100.00
28167;BME280;15455;53.376;-6.262;2023-04-26T13:24:57;101327.50;;;14.01;100.00
28167;BME280;15455;53.376;-6.262;2023-04-26T13:27:44;101334.47;;;14.01;100.00
28167;BME280;15455;53.376;-6.262;2023-04-26T13:30:29;101323.13;;;14.00;100.00
28167;BME280;15455;53.376;-6.262;2023-04-26T13:33:15;101332.03;;;13.75;100.00
28167;BME280;15455;53.376;-6.262;2023-04-26T13:36:01;101322.41;;;13.72;100.00
28167;BME280;15455;53.376;-6.262;2023-04-26T13:38:46;101321.97;;;14.34;100.00
28167;BME280;15455;53.376;-6.262;2023-04-26T13:41:36;101324.19;;;14.77;100.00
28167;BME280;15455;53.376;-6.262;2023-04-26T13:44:21;101314.41;;;14.91;100.00
28167;BME280;15455;53.376;-6.262;2023-04-26T13:47:07;101317.00;;;14.94;100.00
28167;BME280;15455;53.376;-6.262;2023-04-26T13:49:52;101315.59;;;14.63;100.00
28167;BME280;15455;53.376;-6.262;2023-04-26T13:52:38;101314.66;;;14.68;100.00
28167;BME280;15455;53.376;-6.262;2023-04-26T13:55:23;101315.34;;;14.87;100.00
28167;BME280;15455;53.376;-6.262;2023-04-26T13:58:10;101318.63;;;15.05;100.00
28167;BME280;15455;53.376;-6.262;2023-04-26T14:00:55;101313.22;;;15.19;100.00
28167;BME280;15455;53.376;-6.262;2023-04-26T14:03:43;101325.25;;;15.38;100.00
28167;BME280;15455;53.376;-6.262;2023-04-26T14:06:29;101325.03;;;15.52;100.00
28167;BME280;15455;53.376;-6.262;2023-04-26T14:09:16;101325.94;;;15.53;100.00
28167;BME280;15455;53.376;-6.262;2023-04-26T14:12:02;101319.75;;;15.55;100.00
28167;BME280;15455;53.376;-6.262;2023-04-26T14:14:53;101332.09;;;15.50;100.00
28167;BME280;15455;53.376;-6.262;2023-04-26T14:17:38;101325.25;;;15.38;100.00
28167;BME280;15455;53.376;-6.262;2023-04-26T14:20:24;101325.38;;;15.27;100.00
28167;BME280;15455;53.376;-6.262;2023-04-26T14:23:10;101331.25;;;15.46;100.00
28167;BME280;15455;53.376;-6.262;2023-04-26T14:25:55;101324.06;;;15.59;100.00
28167;BME280;15455;53.376;-6.262;2023-04-26T14:28:40;101324.78;;;15.71;100.00
28167;BME280;15455;53.376;-6.262;2023-04-26T14:31:26;101325.63;;;15.73;100.00
28167;BME280;15455;53.376;-6.262;2023-04-26T14:34:13;101322.06;;;15.77;100.00